sensor_id;sensor_type;location;lat;lon;timestamp;P1;durP1;ratioP1;P2;durP2;ratioP2
297;SDS011;133;49.626;9.680;2022-09-09T00:00:37;6.27;;;2.63;;
297;SDS011;133;49.626;9.680;2022-09-09T00:03:08;3.07;;;2.60;;
297;SDS011;133;49.626;9.680;2022-09-09T00:05:51;4.23;;;3.00;;
297;SDS011;133;49.626;9.680;2022-09-09T00:11:04;6.33;;;2.90;;
297;SDS011;133;49.626;9.680;2022-09-09T00:13:41;4.70;;;2.43;;
297;SDS011;133;49.626;9.680;2022-09-09T00:21:33;3.43;;;3.20;;
297;SDS011;133;49.626;9.680;2022-09-09T00:24:00;4.27;;;2.80;;
297;SDS011;133;49.626;9.680;2022-09-09T00:31:37;3.57;;;2.97;;
297;SDS011;133;49.626;9.680;2022-09-09T00:34:13;4.50;;;2.60;;
297;SDS011;133;49.626;9.680;2022-09-09T00:36:43;3.63;;;2.50;;
297;SDS011;133;49.626;9.680;2022-09-09T00:39:27;4.33;;;2.70;;
297;SDS011;133;49.626;9.680;2022-09-09T00:42:04;4.53;;;2.33;;
297;SDS011;133;49.626;9.680;2022-09-09T00:44:39;7.80;;;2.60;;
297;SDS011;133;49.626;9.680;2022-09-09T00:55:39;6.50;;;2.30;;
297;SDS011;133;49.626;9.680;2022-09-09T00:58:14;4.63;;;2.80;;
297;SDS011;133;49.626;9.680;2022-09-09T01:00:44;2.43;;;2.23;;
297;SDS011;133;49.626;9.680;2022-09-09T01:03:36;3.00;;;2.13;;
297;SDS011;133;49.626;9.680;2022-09-09T01:16:58;3.57;;;2.40;;
297;SDS011;133;49.626;9.680;2022-09-09T01:19:37;3.40;;;2.33;;
297;SDS011;133;49.626;9.680;2022-09-09T01:27:46;2.80;;;2.60;;
297;SDS011;133;49.626;9.680;2022-09-09T01:30:15;2.80;;;2.60;;
297;SDS011;133;49.626;9.680;2022-09-09T01:35:55;3.83;;;2.60;;
297;SDS011;133;49.626;9.680;2022-09-09T01:38:06;9.10;;;3.00;;
297;SDS011;133;49.626;9.680;2022-09-09T01:40:32;6.13;;;2.70;;
297;SDS011;133;49.626;9.680;2022-09-09T01:42:58;2.90;;;2.70;;
297;SDS011;133;49.626;9.680;2022-09-09T01:45:24;2.53;;;2.33;;
297;SDS011;133;49.626;9.680;2022-09-09T01:47:50;4.37;;;2.53;;
297;SDS011;133;49.626;9.680;2022-09-09T01:50:17;6.17;;;2.93;;
297;SDS011;133;49.626;9.680;2022-09-09T01:52:45;7.93;;;2.50;;
297;SDS011;133;49.626;9.680;2022-09-09T01:55:15;4.80;;;2.83;;
297;SDS011;133;49.626;9.680;2022-09-09T02:01:40;3.47;;;2.40;;
297;SDS011;133;49.626;9.680;2022-09-09T02:03:58;4.30;;;2.50;;
297;SDS011;133;49.626;9.680;2022-09-09T02:06:35;3.00;;;2.20;;
297;SDS011;133;49.626;9.680;2022-09-09T02:09:05;5.10;;;2.67;;
297;SDS011;133;49.626;9.680;2022-09-09T02:11:35;3.53;;;2.47;;
297;SDS011;133;49.626;9.680;2022-09-09T02:14:18;2.90;;;2.50;;
297;SDS011;133;49.626;9.680;2022-09-09T02:16:50;4.40;;;2.30;;
297;SDS011;133;49.626;9.680;2022-09-09T02:21:52;3.37;;;2.67;;
297;SDS011;133;49.626;9.680;2022-09-09T02:24:20;4.93;;;2.30;;
297;SDS011;133;49.626;9.680;2022-09-09T02:26:47;3.60;;;2.50;;
297;SDS011;133;49.626;9.680;2022-09-09T02:32:05;5.60;;;2.53;;
297;SDS011;133;49.626;9.680;2022-09-09T02:34:34;2.60;;;2.43;;
297;SDS011;133;49.626;9.680;2022-09-09T02:37:04;5.70;;;2.40;;
297;SDS011;133;49.626;9.680;2022-09-09T02:39:33;2.70;;;2.50;;
297;SDS011;133;49.626;9.680;2022-09-09T02:41:58;3.70;;;2.57;;
297;SDS011;133;49.626;9.680;2022-09-09T02:44:24;3.50;;;2.30;;
297;SDS011;133;49.626;9.680;2022-09-09T02:52:42;3.93;;;2.77;;
297;SDS011;133;49.626;9.680;2022-09-09T02:58:13;2.80;;;2.60;;
297;SDS011;133;49.626;9.680;2022-09-09T03:00:47;5.07;;;2.60;;
297;SDS011;133;49.626;9.680;2022-09-09T03:03:15;2.37;;;2.27;;
297;SDS011;133;49.626;9.680;2022-09-09T03:05:43;3.40;;;2.50;;
297;SDS011;133;49.626;9.680;2022-09-09T03:08:09;2.63;;;2.50;;
297;SDS011;133;49.626;9.680;2022-09-09T03:10:35;6.53;;;2.50;;
297;SDS011;133;49.626;9.680;2022-09-09T03:13:02;2.70;;;2.50;;
297;SDS011;133;49.626;9.680;2022-09-09T03:15:30;4.10;;;2.33;;
297;SDS011;133;49.626;9.680;2022-09-09T03:17:57;4.43;;;2.67;;
297;SDS011;133;49.626;9.680;2022-09-09T03:20:24;3.77;;;2.80;;
297;SDS011;133;49.626;9.680;2022-09-09T03:22:51;4.20;;;3.00;;
297;SDS011;133;49.626;9.680;2022-09-09T03:25:20;5.53;;;2.97;;
297;SDS011;133;49.626;9.680;2022-09-09T03:27:48;4.03;;;2.70;;
297;SDS011;133;49.626;9.680;2022-09-09T03:30:14;4.20;;;2.67;;
297;SDS011;133;49.626;9.680;2022-09-09T03:32:40;3.37;;;2.70;;
297;SDS011;133;49.626;9.680;2022-09-09T03:35:06;4.83;;;2.50;;
297;SDS011;133;49.626;9.680;2022-09-09T03:37:32;2.93;;;2.47;;
297;SDS011;133;49.626;9.680;2022-09-09T03:39:58;3.23;;;2.43;;
297;SDS011;133;49.626;9.680;2022-09-09T03:42:24;5.07;;;2.57;;
297;SDS011;133;49.626;9.680;2022-09-09T03:44:50;5.30;;;3.07;;
297;SDS011;133;49.626;9.680;2022-09-09T03:47:19;3.97;;;3.03;;
297;SDS011;133;49.626;9.680;2022-09-09T03:49:46;4.30;;;2.60;;
297;SDS011;133;49.626;9.680;2022-09-09T03:52:13;3.53;;;2.30;;
297;SDS011;133;49.626;9.680;2022-09-09T03:54:39;6.10;;;2.70;;
297;SDS011;133;49.626;9.680;2022-09-09T03:57:07;2.73;;;2.53;;
297;SDS011;133;49.626;9.680;2022-09-09T03:59:34;5.90;;;3.07;;
297;SDS011;133;49.626;9.680;2022-09-09T04:02:00;5.70;;;2.70;;
297;SDS011;133;49.626;9.680;2022-09-09T04:04:27;4.20;;;2.97;;
297;SDS011;133;49.626;9.680;2022-09-09T04:06:52;5.50;;;2.67;;
297;SDS011;133;49.626;9.680;2022-09-09T04:09:18;3.03;;;2.77;;
297;SDS011;133;49.626;9.680;2022-09-09T04:11:44;3.17;;;2.60;;
297;SDS011;133;49.626;9.680;2022-09-09T04:14:11;3.10;;;2.57;;
297;SDS011;133;49.626;9.680;2022-09-09T04:16:37;7.87;;;2.80;;
297;SDS011;133;49.626;9.680;2022-09-09T04:19:03;5.77;;;2.60;;
297;SDS011;133;49.626;9.680;2022-09-09T04:21:31;2.47;;;2.30;;
297;SDS011;133;49.626;9.680;2022-09-09T04:23:57;3.73;;;2.60;;
297;SDS011;133;49.626;9.680;2022-09-09T04:26:23;2.90;;;2.50;;
297;SDS011;133;49.626;9.680;2022-09-09T04:28:48;11.40;;;3.20;;
297;SDS011;133;49.626;9.680;2022-09-09T04:31:16;2.97;;;2.40;;
297;SDS011;133;49.626;9.680;2022-09-09T04:33:44;3.10;;;2.40;;
297;SDS011;133;49.626;9.680;2022-09-09T04:36:11;3.20;;;2.60;;
297;SDS011;133;49.626;9.680;2022-09-09T04:38:37;3.20;;;2.50;;
297;SDS011;133;49.626;9.680;2022-09-09T04:41:03;2.53;;;2.40;;
297;SDS011;133;49.626;9.680;2022-09-09T04:43:29;3.27;;;2.37;;
297;SDS011;133;49.626;9.680;2022-09-09T04:45:55;2.70;;;2.53;;
297;SDS011;133;49.626;9.680;2022-09-09T04:48:22;3.47;;;2.43;;
297;SDS011;133;49.626;9.680;2022-09-09T04:50:55;4.27;;;2.70;;
297;SDS011;133;49.626;9.680;2022-09-09T04:53:21;4.37;;;2.50;;
297;SDS011;133;49.626;9.680;2022-09-09T04:55:47;5.13;;;2.50;;
297;SDS011;133;49.626;9.680;2022-09-09T04:58:13;13.63;;;2.70;;
297;SDS011;133;49.626;9.680;2022-09-09T05:00:39;3.67;;;2.40;;
297;SDS011;133;49.626;9.680;2022-09-09T05:03:05;4.40;;;2.40;;
297;SDS011;133;49.626;9.680;2022-09-09T05:05:31;3.30;;;2.30;;
297;SDS011;133;49.626;9.680;2022-09-09T05:08:04;2.70;;;2.50;;
297;SDS011;133;49.626;9.680;2022-09-09T05:10:31;5.20;;;2.40;;
297;SDS011;133;49.626;9.680;2022-09-09T05:12:57;7.17;;;2.47;;
297;SDS011;133;49.626;9.680;2022-09-09T05:15:22;8.50;;;2.60;;
297;SDS011;133;49.626;9.680;2022-09-09T05:17:48;3.77;;;2.57;;
297;SDS011;133;49.626;9.680;2022-09-09T05:20:14;2.73;;;2.50;;
297;SDS011;133;49.626;9.680;2022-09-09T05:22:39;5.27;;;2.43;;
297;SDS011;133;49.626;9.680;2022-09-09T05:25:05;2.40;;;2.23;;
297;SDS011;133;49.626;9.680;2022-09-09T05:27:33;3.30;;;2.27;;
297;SDS011;133;49.626;9.680;2022-09-09T05:29:59;3.13;;;2.23;;
297;SDS011;133;49.626;9.680;2022-09-09T05:32:24;5.00;;;2.40;;
297;SDS011;133;49.626;9.680;2022-09-09T05:34:50;3.40;;;2.30;;
297;SDS011;133;49.626;9.680;2022-09-09T05:37:17;4.40;;;2.60;;
297;SDS011;133;49.626;9.680;2022-09-09T05:39:43;4.33;;;2.47;;
297;SDS011;133;49.626;9.680;2022-09-09T05:42:08;4.60;;;2.00;;
297;SDS011;133;49.626;9.680;2022-09-09T05:44:34;2.70;;;2.27;;
297;SDS011;133;49.626;9.680;2022-09-09T05:47:00;3.43;;;2.37;;
297;SDS011;133;49.626;9.680;2022-09-09T05:49:26;2.90;;;2.60;;
297;SDS011;133;49.626;9.680;2022-09-09T05:51:51;3.00;;;2.20;;
297;SDS011;133;49.626;9.680;2022-09-09T05:54:18;3.40;;;2.30;;
297;SDS011;133;49.626;9.680;2022-09-09T05:56:43;3.00;;;2.00;;
297;SDS011;133;49.626;9.680;2022-09-09T05:59:09;4.43;;;2.47;;
297;SDS011;133;49.626;9.680;2022-09-09T06:01:36;7.37;;;2.57;;
297;SDS011;133;49.626;9.680;2022-09-09T06:04:05;2.67;;;2.00;;
297;SDS011;133;49.626;9.680;2022-09-09T06:06:33;2.53;;;1.90;;
297;SDS011;133;49.626;9.680;2022-09-09T06:09:02;2.50;;;2.10;;
297;SDS011;133;49.626;9.680;2022-09-09T06:11:31;3.70;;;2.50;;
297;SDS011;133;49.626;9.680;2022-09-09T06:13:58;3.13;;;2.10;;
297;SDS011;133;49.626;9.680;2022-09-09T06:16:25;5.63;;;2.37;;
297;SDS011;133;49.626;9.680;2022-09-09T06:18:53;7.23;;;2.37;;
297;SDS011;133;49.626;9.680;2022-09-09T06:21:21;3.83;;;2.43;;
297;SDS011;133;49.626;9.680;2022-09-09T06:23:51;3.53;;;2.20;;
297;SDS011;133;49.626;9.680;2022-09-09T06:26:22;2.40;;;2.20;;
297;SDS011;133;49.626;9.680;2022-09-09T06:28:50;4.97;;;2.00;;
297;SDS011;133;49.626;9.680;2022-09-09T06:31:19;7.30;;;2.30;;
297;SDS011;133;49.626;9.680;2022-09-09T06:33:49;3.37;;;2.23;;
297;SDS011;133;49.626;9.680;2022-09-09T06:36:17;2.80;;;2.00;;
297;SDS011;133;49.626;9.680;2022-09-09T06:38:45;5.30;;;2.10;;
297;SDS011;133;49.626;9.680;2022-09-09T06:41:11;1.97;;;1.90;;
297;SDS011;133;49.626;9.680;2022-09-09T06:43:39;4.90;;;1.90;;
297;SDS011;133;49.626;9.680;2022-09-09T06:48:33;3.50;;;2.67;;
297;SDS011;133;49.626;9.680;2022-09-09T06:53:38;3.13;;;1.90;;
297;SDS011;133;49.626;9.680;2022-09-09T06:58:37;3.37;;;2.10;;
297;SDS011;133;49.626;9.680;2022-09-09T07:01:09;3.93;;;2.20;;
297;SDS011;133;49.626;9.680;2022-09-09T07:03:40;5.83;;;2.30;;
297;SDS011;133;49.626;9.680;2022-09-09T07:06:07;4.10;;;1.80;;
297;SDS011;133;49.626;9.680;2022-09-09T07:08:34;2.70;;;2.20;;
297;SDS011;133;49.626;9.680;2022-09-09T07:11:03;2.00;;;1.70;;
297;SDS011;133;49.626;9.680;2022-09-09T07:13:30;3.33;;;2.00;;
297;SDS011;133;49.626;9.680;2022-09-09T07:16:03;2.20;;;2.00;;
297;SDS011;133;49.626;9.680;2022-09-09T07:18:33;7.50;;;2.17;;
297;SDS011;133;49.626;9.680;2022-09-09T07:21:00;2.77;;;2.00;;
297;SDS011;133;49.626;9.680;2022-09-09T07:23:27;6.70;;;2.30;;
297;SDS011;133;49.626;9.680;2022-09-09T07:25:53;3.10;;;1.97;;
297;SDS011;133;49.626;9.680;2022-09-09T07:28:19;2.47;;;1.80;;
297;SDS011;133;49.626;9.680;2022-09-09T07:30:58;3.00;;;1.90;;
297;SDS011;133;49.626;9.680;2022-09-09T07:33:28;8.33;;;1.90;;
297;SDS011;133;49.626;9.680;2022-09-09T07:36:08;2.20;;;2.00;;
297;SDS011;133;49.626;9.680;2022-09-09T07:38:42;3.13;;;2.63;;
297;SDS011;133;49.626;9.680;2022-09-09T07:41:16;2.63;;;1.90;;
297;SDS011;133;49.626;9.680;2022-09-09T07:43:44;3.53;;;2.03;;
297;SDS011;133;49.626;9.680;2022-09-09T07:46:12;4.40;;;1.80;;
297;SDS011;133;49.626;9.680;2022-09-09T07:48:39;4.00;;;1.90;;
297;SDS011;133;49.626;9.680;2022-09-09T07:51:11;2.20;;;2.00;;
297;SDS011;133;49.626;9.680;2022-09-09T07:53:45;3.30;;;2.07;;
297;SDS011;133;49.626;9.680;2022-09-09T07:56:13;5.57;;;2.40;;
297;SDS011;133;49.626;9.680;2022-09-09T07:58:41;5.00;;;2.20;;
297;SDS011;133;49.626;9.680;2022-09-09T08:01:12;2.47;;;1.77;;
297;SDS011;133;49.626;9.680;2022-09-09T08:03:40;5.73;;;2.43;;
297;SDS011;133;49.626;9.680;2022-09-09T08:06:07;2.50;;;1.90;;
297;SDS011;133;49.626;9.680;2022-09-09T08:08:34;5.10;;;2.13;;
297;SDS011;133;49.626;9.680;2022-09-09T08:11:11;4.40;;;2.00;;
297;SDS011;133;49.626;9.680;2022-09-09T08:13:39;6.03;;;2.50;;
297;SDS011;133;49.626;9.680;2022-09-09T08:16:07;7.17;;;2.10;;
297;SDS011;133;49.626;9.680;2022-09-09T08:18:41;4.77;;;2.30;;
297;SDS011;133;49.626;9.680;2022-09-09T08:21:14;6.70;;;2.97;;
297;SDS011;133;49.626;9.680;2022-09-09T08:23:43;8.53;;;2.20;;
297;SDS011;133;49.626;9.680;2022-09-09T08:26:17;4.13;;;2.30;;
297;SDS011;133;49.626;9.680;2022-09-09T08:28:51;6.00;;;3.23;;
297;SDS011;133;49.626;9.680;2022-09-09T08:31:25;8.27;;;2.40;;
297;SDS011;133;49.626;9.680;2022-09-09T08:33:55;8.50;;;2.50;;
297;SDS011;133;49.626;9.680;2022-09-09T08:36:26;5.27;;;2.50;;
297;SDS011;133;49.626;9.680;2022-09-09T08:38:54;8.07;;;2.50;;
297;SDS011;133;49.626;9.680;2022-09-09T08:44:07;4.67;;;2.23;;
297;SDS011;133;49.626;9.680;2022-09-09T08:55:11;8.70;;;2.43;;
297;SDS011;133;49.626;9.680;2022-09-09T08:57:53;4.30;;;2.33;;
297;SDS011;133;49.626;9.680;2022-09-09T09:00:22;4.77;;;2.40;;
297;SDS011;133;49.626;9.680;2022-09-09T09:11:46;7.63;;;2.50;;
297;SDS011;133;49.626;9.680;2022-09-09T09:14:21;6.40;;;2.60;;
297;SDS011;133;49.626;9.680;2022-09-09T09:17:23;8.30;;;3.20;;
297;SDS011;133;49.626;9.680;2022-09-09T09:19:44;7.10;;;2.40;;
297;SDS011;133;49.626;9.680;2022-09-09T09:27:47;8.83;;;2.70;;
297;SDS011;133;49.626;9.680;2022-09-09T09:30:23;5.40;;;2.40;;
297;SDS011;133;49.626;9.680;2022-09-09T09:35:41;4.70;;;2.20;;
297;SDS011;133;49.626;9.680;2022-09-09T09:38:40;9.53;;;2.17;;
297;SDS011;133;49.626;9.680;2022-09-09T09:41:00;4.40;;;2.23;;
297;SDS011;133;49.626;9.680;2022-09-09T09:45:54;4.00;;;2.30;;
297;SDS011;133;49.626;9.680;2022-09-09T09:48:22;7.93;;;2.40;;
297;SDS011;133;49.626;9.680;2022-09-09T09:53:25;6.53;;;2.20;;
297;SDS011;133;49.626;9.680;2022-09-09T09:58:27;2.73;;;2.03;;
297;SDS011;133;49.626;9.680;2022-09-09T10:00:57;7.57;;;2.40;;
297;SDS011;133;49.626;9.680;2022-09-09T10:03:34;5.50;;;2.30;;
297;SDS011;133;49.626;9.680;2022-09-09T10:06:04;6.50;;;2.10;;
297;SDS011;133;49.626;9.680;2022-09-09T10:08:32;5.23;;;2.27;;
297;SDS011;133;49.626;9.680;2022-09-09T10:13:46;8.70;;;2.23;;
297;SDS011;133;49.626;9.680;2022-09-09T10:19:19;7.63;;;2.70;;
297;SDS011;133;49.626;9.680;2022-09-09T10:22:16;7.63;;;1.90;;
297;SDS011;133;49.626;9.680;2022-09-09T10:38:17;4.00;;;2.07;;
297;SDS011;133;49.626;9.680;2022-09-09T10:48:54;5.20;;;1.70;;
297;SDS011;133;49.626;9.680;2022-09-09T10:51:36;9.23;;;2.40;;
297;SDS011;133;49.626;9.680;2022-09-09T10:54:25;5.20;;;1.83;;
297;SDS011;133;49.626;9.680;2022-09-09T10:57:21;5.77;;;1.97;;
297;SDS011;133;49.626;9.680;2022-09-09T11:00:05;4.60;;;1.90;;
297;SDS011;133;49.626;9.680;2022-09-09T11:02:39;2.30;;;1.90;;
297;SDS011;133;49.626;9.680;2022-09-09T11:08:18;2.03;;;1.70;;
297;SDS011;133;49.626;9.680;2022-09-09T11:13:44;2.50;;;1.70;;
297;SDS011;133;49.626;9.680;2022-09-09T11:18:50;5.40;;;2.37;;
297;SDS011;133;49.626;9.680;2022-09-09T11:21:29;2.80;;;1.80;;
297;SDS011;133;49.626;9.680;2022-09-09T11:24:05;4.30;;;1.93;;
297;SDS011;133;49.626;9.680;2022-09-09T11:26:39;2.40;;;1.90;;
297;SDS011;133;49.626;9.680;2022-09-09T11:38:26;3.27;;;2.30;;
297;SDS011;133;49.626;9.680;2022-09-09T11:41:05;3.47;;;2.00;;
297;SDS011;133;49.626;9.680;2022-09-09T11:46:06;5.90;;;2.07;;
297;SDS011;133;49.626;9.680;2022-09-09T11:53:32;5.77;;;1.80;;
297;SDS011;133;49.626;9.680;2022-09-09T11:56:02;4.13;;;2.10;;
297;SDS011;133;49.626;9.680;2022-09-09T11:59:23;2.20;;;2.00;;
297;SDS011;133;49.626;9.680;2022-09-09T12:01:34;2.40;;;1.87;;
297;SDS011;133;49.626;9.680;2022-09-09T12:06:58;3.17;;;2.10;;
297;SDS011;133;49.626;9.680;2022-09-09T12:09:46;2.70;;;2.03;;
297;SDS011;133;49.626;9.680;2022-09-09T12:12:25;6.00;;;1.90;;
297;SDS011;133;49.626;9.680;2022-09-09T12:17:26;2.43;;;2.00;;
297;SDS011;133;49.626;9.680;2022-09-09T12:20:00;2.60;;;1.93;;
297;SDS011;133;49.626;9.680;2022-09-09T12:22:40;2.83;;;1.97;;
297;SDS011;133;49.626;9.680;2022-09-09T12:25:36;6.20;;;1.93;;
297;SDS011;133;49.626;9.680;2022-09-09T12:31:17;4.57;;;2.10;;
297;SDS011;133;49.626;9.680;2022-09-09T12:33:47;4.23;;;1.90;;
297;SDS011;133;49.626;9.680;2022-09-09T12:36:16;3.10;;;1.80;;
297;SDS011;133;49.626;9.680;2022-09-09T12:38:56;2.17;;;1.70;;
297;SDS011;133;49.626;9.680;2022-09-09T12:41:35;3.50;;;1.90;;
297;SDS011;133;49.626;9.680;2022-09-09T12:44:04;2.50;;;1.60;;
297;SDS011;133;49.626;9.680;2022-09-09T12:46:34;2.07;;;1.70;;
297;SDS011;133;49.626;9.680;2022-09-09T12:49:03;2.80;;;1.87;;
297;SDS011;133;49.626;9.680;2022-09-09T12:51:30;2.83;;;1.80;;
297;SDS011;133;49.626;9.680;2022-09-09T12:53:58;2.77;;;1.60;;
297;SDS011;133;49.626;9.680;2022-09-09T12:56:25;3.47;;;2.00;;
297;SDS011;133;49.626;9.680;2022-09-09T12:58:55;3.63;;;1.80;;
297;SDS011;133;49.626;9.680;2022-09-09T13:01:24;2.77;;;1.80;;
297;SDS011;133;49.626;9.680;2022-09-09T13:03:58;3.80;;;1.87;;
297;SDS011;133;49.626;9.680;2022-09-09T13:06:25;2.07;;;1.70;;
297;SDS011;133;49.626;9.680;2022-09-09T13:08:53;3.13;;;1.83;;
297;SDS011;133;49.626;9.680;2022-09-09T13:11:24;5.67;;;2.20;;
297;SDS011;133;49.626;9.680;2022-09-09T13:13:56;3.73;;;1.80;;
297;SDS011;133;49.626;9.680;2022-09-09T13:16:25;3.40;;;1.90;;
297;SDS011;133;49.626;9.680;2022-09-09T13:18:57;6.03;;;2.20;;
297;SDS011;133;49.626;9.680;2022-09-09T13:21:32;2.47;;;1.90;;
297;SDS011;133;49.626;9.680;2022-09-09T13:24:02;3.30;;;2.23;;
297;SDS011;133;49.626;9.680;2022-09-09T13:26:56;5.97;;;1.80;;
297;SDS011;133;49.626;9.680;2022-09-09T13:29:50;4.87;;;2.17;;
297;SDS011;133;49.626;9.680;2022-09-09T13:32:20;12.03;;;2.07;;
297;SDS011;133;49.626;9.680;2022-09-09T13:34:50;4.47;;;2.10;;
297;SDS011;133;49.626;9.680;2022-09-09T13:37:38;5.00;;;1.87;;
297;SDS011;133;49.626;9.680;2022-09-09T13:40:04;7.30;;;2.07;;
297;SDS011;133;49.626;9.680;2022-09-09T13:42:35;8.13;;;2.10;;
297;SDS011;133;49.626;9.680;2022-09-09T13:45:14;3.37;;;1.80;;
297;SDS011;133;49.626;9.680;2022-09-09T13:47:42;4.33;;;2.10;;
297;SDS011;133;49.626;9.680;2022-09-09T13:52:54;4.20;;;1.73;;
297;SDS011;133;49.626;9.680;2022-09-09T13:55:23;2.83;;;1.63;;
297;SDS011;133;49.626;9.680;2022-09-09T13:58:00;4.17;;;2.43;;
297;SDS011;133;49.626;9.680;2022-09-09T14:00:36;6.87;;;1.70;;
297;SDS011;133;49.626;9.680;2022-09-09T14:03:02;3.87;;;1.97;;
297;SDS011;133;49.626;9.680;2022-09-09T14:05:29;3.20;;;1.93;;
297;SDS011;133;49.626;9.680;2022-09-09T14:07:57;1.87;;;1.70;;
297;SDS011;133;49.626;9.680;2022-09-09T14:10:23;2.47;;;1.50;;
297;SDS011;133;49.626;9.680;2022-09-09T14:12:48;4.07;;;1.77;;
297;SDS011;133;49.626;9.680;2022-09-09T14:15:14;3.37;;;1.80;;
297;SDS011;133;49.626;9.680;2022-09-09T14:17:40;5.60;;;2.17;;
297;SDS011;133;49.626;9.680;2022-09-09T14:20:06;6.30;;;2.27;;
297;SDS011;133;49.626;9.680;2022-09-09T14:22:33;2.93;;;2.10;;
297;SDS011;133;49.626;9.680;2022-09-09T14:24:58;2.47;;;1.80;;
297;SDS011;133;49.626;9.680;2022-09-09T14:27:24;4.77;;;2.00;;
297;SDS011;133;49.626;9.680;2022-09-09T14:29:51;6.53;;;2.43;;
297;SDS011;133;49.626;9.680;2022-09-09T14:32:17;3.20;;;2.10;;
297;SDS011;133;49.626;9.680;2022-09-09T14:34:43;4.00;;;2.37;;
297;SDS011;133;49.626;9.680;2022-09-09T14:37:09;2.93;;;2.10;;
297;SDS011;133;49.626;9.680;2022-09-09T14:39:36;3.77;;;2.20;;
297;SDS011;133;49.626;9.680;2022-09-09T14:42:01;3.07;;;1.90;;
297;SDS011;133;49.626;9.680;2022-09-09T14:44:27;2.00;;;1.90;;
297;SDS011;133;49.626;9.680;2022-09-09T14:46:53;4.30;;;2.27;;
297;SDS011;133;49.626;9.680;2022-09-09T14:49:19;2.63;;;1.80;;
297;SDS011;133;49.626;9.680;2022-09-09T14:51:45;3.03;;;1.63;;
297;SDS011;133;49.626;9.680;2022-09-09T14:54:10;4.17;;;1.90;;
297;SDS011;133;49.626;9.680;2022-09-09T14:56:36;3.27;;;1.80;;
297;SDS011;133;49.626;9.680;2022-09-09T14:59:03;2.50;;;1.80;;
297;SDS011;133;49.626;9.680;2022-09-09T15:01:29;3.37;;;1.97;;
297;SDS011;133;49.626;9.680;2022-09-09T15:06:24;3.73;;;2.20;;
297;SDS011;133;49.626;9.680;2022-09-09T15:08:51;1.97;;;1.80;;
297;SDS011;133;49.626;9.680;2022-09-09T15:11:18;2.60;;;1.53;;
297;SDS011;133;49.626;9.680;2022-09-09T15:13:45;4.33;;;2.10;;
297;SDS011;133;49.626;9.680;2022-09-09T15:18:44;3.23;;;1.80;;
297;SDS011;133;49.626;9.680;2022-09-09T15:21:11;3.00;;;1.70;;
297;SDS011;133;49.626;9.680;2022-09-09T15:23:39;3.23;;;2.10;;
297;SDS011;133;49.626;9.680;2022-09-09T15:26:05;2.83;;;2.10;;
297;SDS011;133;49.626;9.680;2022-09-09T15:28:31;4.67;;;2.63;;
297;SDS011;133;49.626;9.680;2022-09-09T15:31:04;3.60;;;2.93;;
297;SDS011;133;49.626;9.680;2022-09-09T15:33:32;2.47;;;2.00;;
297;SDS011;133;49.626;9.680;2022-09-09T15:35:58;1.53;;;1.47;;
297;SDS011;133;49.626;9.680;2022-09-09T15:38:24;3.20;;;2.03;;
297;SDS011;133;49.626;9.680;2022-09-09T15:40:53;3.30;;;1.57;;
297;SDS011;133;49.626;9.680;2022-09-09T15:43:20;2.30;;;1.60;;
297;SDS011;133;49.626;9.680;2022-09-09T15:45:48;5.00;;;1.80;;
297;SDS011;133;49.626;9.680;2022-09-09T15:48:19;2.50;;;1.70;;
297;SDS011;133;49.626;9.680;2022-09-09T15:51:00;2.37;;;1.80;;
297;SDS011;133;49.626;9.680;2022-09-09T15:53:30;1.80;;;1.50;;
297;SDS011;133;49.626;9.680;2022-09-09T15:55:57;2.87;;;1.50;;
297;SDS011;133;49.626;9.680;2022-09-09T15:58:24;4.90;;;2.13;;
297;SDS011;133;49.626;9.680;2022-09-09T16:00:49;5.07;;;1.80;;
297;SDS011;133;49.626;9.680;2022-09-09T16:03:16;1.67;;;1.60;;
297;SDS011;133;49.626;9.680;2022-09-09T16:05:41;2.50;;;1.50;;
297;SDS011;133;49.626;9.680;2022-09-09T16:08:08;2.63;;;1.80;;
297;SDS011;133;49.626;9.680;2022-09-09T16:10:34;4.90;;;1.80;;
297;SDS011;133;49.626;9.680;2022-09-09T16:12:59;2.07;;;1.77;;
297;SDS011;133;49.626;9.680;2022-09-09T16:15:25;3.10;;;1.70;;
297;SDS011;133;49.626;9.680;2022-09-09T16:17:53;3.37;;;1.77;;
297;SDS011;133;49.626;9.680;2022-09-09T16:20:18;4.40;;;1.80;;
297;SDS011;133;49.626;9.680;2022-09-09T16:22:45;5.80;;;1.90;;
297;SDS011;133;49.626;9.680;2022-09-09T16:25:11;2.00;;;1.67;;
297;SDS011;133;49.626;9.680;2022-09-09T16:27:36;2.40;;;1.60;;
297;SDS011;133;49.626;9.680;2022-09-09T16:30:02;6.20;;;2.00;;
297;SDS011;133;49.626;9.680;2022-09-09T16:32:28;3.10;;;2.00;;
297;SDS011;133;49.626;9.680;2022-09-09T16:34:54;4.00;;;1.97;;
297;SDS011;133;49.626;9.680;2022-09-09T16:37:20;4.60;;;1.67;;
297;SDS011;133;49.626;9.680;2022-09-09T16:39:45;4.70;;;1.80;;
297;SDS011;133;49.626;9.680;2022-09-09T16:42:11;1.77;;;1.67;;
297;SDS011;133;49.626;9.680;2022-09-09T16:44:37;2.90;;;1.80;;
297;SDS011;133;49.626;9.680;2022-09-09T16:47:02;4.70;;;2.00;;
297;SDS011;133;49.626;9.680;2022-09-09T16:49:28;2.00;;;1.70;;
297;SDS011;133;49.626;9.680;2022-09-09T16:51:56;4.60;;;1.80;;
297;SDS011;133;49.626;9.680;2022-09-09T16:54:23;5.40;;;1.87;;
297;SDS011;133;49.626;9.680;2022-09-09T16:56:50;1.97;;;1.87;;
297;SDS011;133;49.626;9.680;2022-09-09T16:59:17;1.83;;;1.73;;
297;SDS011;133;49.626;9.680;2022-09-09T17:01:44;3.10;;;1.70;;
297;SDS011;133;49.626;9.680;2022-09-09T17:04:13;2.57;;;1.70;;
297;SDS011;133;49.626;9.680;2022-09-09T17:06:41;2.20;;;1.70;;
297;SDS011;133;49.626;9.680;2022-09-09T17:09:08;1.93;;;1.90;;
297;SDS011;133;49.626;9.680;2022-09-09T17:11:34;3.93;;;1.90;;
297;SDS011;133;49.626;9.680;2022-09-09T17:14:02;2.70;;;1.90;;
297;SDS011;133;49.626;9.680;2022-09-09T17:16:29;1.80;;;1.70;;
297;SDS011;133;49.626;9.680;2022-09-09T17:18:56;4.30;;;1.90;;
297;SDS011;133;49.626;9.680;2022-09-09T17:21:24;4.20;;;1.77;;
297;SDS011;133;49.626;9.680;2022-09-09T17:23:50;4.67;;;2.20;;
297;SDS011;133;49.626;9.680;2022-09-09T17:26:17;4.13;;;1.77;;
297;SDS011;133;49.626;9.680;2022-09-09T17:28:44;3.40;;;2.03;;
297;SDS011;133;49.626;9.680;2022-09-09T17:31:11;2.90;;;1.80;;
297;SDS011;133;49.626;9.680;2022-09-09T17:33:39;4.20;;;2.00;;
297;SDS011;133;49.626;9.680;2022-09-09T17:38:37;1.80;;;1.67;;
297;SDS011;133;49.626;9.680;2022-09-09T17:41:04;7.93;;;2.00;;
297;SDS011;133;49.626;9.680;2022-09-09T17:43:35;2.20;;;1.73;;
297;SDS011;133;49.626;9.680;2022-09-09T17:46:05;4.00;;;1.77;;
297;SDS011;133;49.626;9.680;2022-09-09T17:48:35;2.50;;;1.70;;
297;SDS011;133;49.626;9.680;2022-09-09T17:51:02;3.10;;;1.73;;
297;SDS011;133;49.626;9.680;2022-09-09T17:53:41;2.37;;;1.90;;
297;SDS011;133;49.626;9.680;2022-09-09T17:56:10;3.40;;;1.80;;
297;SDS011;133;49.626;9.680;2022-09-09T17:58:38;2.27;;;1.87;;
297;SDS011;133;49.626;9.680;2022-09-09T18:01:08;1.67;;;1.60;;
297;SDS011;133;49.626;9.680;2022-09-09T18:03:36;6.67;;;1.60;;
297;SDS011;133;49.626;9.680;2022-09-09T18:06:05;3.83;;;1.90;;
297;SDS011;133;49.626;9.680;2022-09-09T18:08:32;3.00;;;1.80;;
297;SDS011;133;49.626;9.680;2022-09-09T18:10:59;2.63;;;1.80;;
297;SDS011;133;49.626;9.680;2022-09-09T18:13:26;4.70;;;1.90;;
297;SDS011;133;49.626;9.680;2022-09-09T18:15:52;2.50;;;1.60;;
297;SDS011;133;49.626;9.680;2022-09-09T18:18:19;2.43;;;1.70;;
297;SDS011;133;49.626;9.680;2022-09-09T18:20:45;3.00;;;2.30;;
297;SDS011;133;49.626;9.680;2022-09-09T18:23:20;1.60;;;1.57;;
297;SDS011;133;49.626;9.680;2022-09-09T18:25:46;2.50;;;1.80;;
297;SDS011;133;49.626;9.680;2022-09-09T18:28:11;3.70;;;1.80;;
297;SDS011;133;49.626;9.680;2022-09-09T18:30:38;1.60;;;1.50;;
297;SDS011;133;49.626;9.680;2022-09-09T18:33:04;3.27;;;1.70;;
297;SDS011;133;49.626;9.680;2022-09-09T18:35:30;3.40;;;1.80;;
297;SDS011;133;49.626;9.680;2022-09-09T18:37:55;1.83;;;1.70;;
297;SDS011;133;49.626;9.680;2022-09-09T18:40:21;1.70;;;1.67;;
297;SDS011;133;49.626;9.680;2022-09-09T18:42:47;2.80;;;2.13;;
297;SDS011;133;49.626;9.680;2022-09-09T18:45:13;2.40;;;1.80;;
297;SDS011;133;49.626;9.680;2022-09-09T18:47:39;2.73;;;1.70;;
297;SDS011;133;49.626;9.680;2022-09-09T18:50:06;8.03;;;1.90;;
297;SDS011;133;49.626;9.680;2022-09-09T18:52:32;2.57;;;1.70;;